createdAt,value
2023-02-03T00:02:09.851Z,101374.63
2023-02-03T00:04:38.974Z,101383.31
2023-02-03T00:07:08.292Z,101373.63
2023-02-03T00:09:37.594Z,101375.25
2023-02-03T00:12:09.072Z,101373.47
2023-02-03T00:14:39.020Z,101376.03
2023-02-03T00:17:08.308Z,101368.09
2023-02-03T00:19:37.411Z,101368.91
2023-02-03T00:22:06.704Z,101370.63
2023-02-03T00:24:35.821Z,101362.66
2023-02-03T00:27:05.267Z,101362.66
2023-02-03T00:29:35.852Z,101363.44
2023-02-03T01:10:59.954Z,101303.59
2023-02-03T01:13:30.019Z,101291.38
2023-02-03T01:15:59.325Z,101280.88
2023-02-03T01:18:28.797Z,101273.81
2023-02-03T01:20:58.025Z,101280.78
2023-02-03T01:23:29.556Z,101274.72
2023-02-03T01:26:04.898Z,101272.94
2023-02-03T01:28:34.739Z,101280.78
2023-02-03T01:31:12.006Z,101277.19
2023-02-03T01:33:42.500Z,101279.81
2023-02-03T01:36:11.496Z,101283.28
2023-02-03T01:38:41.139Z,101283.28
2023-02-03T01:41:14.361Z,101279.75
2023-02-03T01:43:46.830Z,101275.34
2023-02-03T01:46:29.568Z,101267.50
2023-02-03T01:49:06.309Z,101278.03
2023-02-03T01:51:36.427Z,101268.41
2023-02-03T01:54:08.656Z,101271.94
2023-02-03T01:56:43.645Z,101260.56
2023-02-03T01:59:16.197Z,101254.50
2023-02-03T02:01:46.414Z,101253.63
2023-02-03T02:04:16.514Z,101245.81
2023-02-03T02:06:48.209Z,101237.09
2023-02-03T02:09:18.344Z,101240.59
2023-02-03T02:11:49.089Z,101229.28
2023-02-03T02:14:18.629Z,101229.28
2023-02-03T02:16:55.548Z,101225.78
2023-02-03T02:19:55.096Z,101217.03
2023-02-03T02:22:31.826Z,101208.34
2023-02-03T02:25:31.888Z,101198.78
2023-02-03T02:28:12.334Z,101191.78
2023-02-03T02:31:14.429Z,101192.56
2023-02-03T02:33:53.400Z,101194.31
2023-02-03T02:36:31.523Z,101180.38
2023-02-03T02:39:07.185Z,101176.94
2023-02-03T02:41:44.071Z,101176.16
2023-02-03T02:44:18.703Z,101171.88
2023-02-03T02:46:51.595Z,101171.91
2023-02-03T02:49:28.250Z,101165.84
2023-02-03T02:52:01.223Z,101166.81
2023-02-03T02:54:32.559Z,101163.34
2023-02-03T02:57:05.715Z,101161.59
2023-02-03T02:59:35.282Z,101159.00
2023-02-03T03:02:05.274Z,101161.69
2023-02-03T03:04:37.661Z,101154.72
2023-02-03T03:07:13.951Z,101142.44
2023-02-03T03:09:47.624Z,101144.16
2023-02-03T03:12:21.518Z,101144.19
2023-02-03T03:14:55.472Z,101128.47
2023-02-03T03:17:29.456Z,101131.09
2023-02-03T03:20:04.274Z,101112.72
2023-02-03T03:22:40.414Z,101113.56
2023-02-03T03:25:16.216Z,101108.38
2023-02-03T03:27:51.177Z,101114.47
2023-02-03T03:34:03.428Z,101104.03
2023-02-03T03:36:41.201Z,101111.03
2023-02-03T03:39:16.737Z,101109.28
2023-02-03T03:41:56.778Z,101111.03
2023-02-03T03:44:32.464Z,101113.69
2023-02-03T03:47:10.354Z,101115.44
2023-02-03T03:49:45.321Z,101105.84
2023-02-03T03:52:20.197Z,101106.75
2023-02-03T03:54:51.563Z,101099.75
2023-02-03T03:57:24.194Z,101100.63
2023-02-03T03:59:55.439Z,101092.75
2023-02-03T04:02:25.370Z,101086.63
2023-02-03T04:04:56.155Z,101093.66
2023-02-03T04:07:38.348Z,101083.19
2023-02-03T04:10:15.523Z,101083.19
2023-02-03T04:12:44.685Z,101074.44
2023-02-03T04:15:14.169Z,101067.47
2023-02-03T04:17:43.268Z,101066.59
2023-02-03T04:20:13.912Z,101059.59
2023-02-03T04:22:44.544Z,101057.00
2023-02-03T04:25:13.967Z,101047.38
2023-02-03T04:27:43.721Z,101043.00
2023-02-03T04:30:14.609Z,101037.75
2023-02-03T04:32:43.879Z,101042.16
2023-02-03T04:35:13.309Z,101035.13
2023-02-03T04:37:44.273Z,101031.66
2023-02-03T04:40:14.708Z,101032.53
2023-02-03T04:42:43.655Z,101009.81
2023-02-03T04:45:14.142Z,101023.75
2023-02-03T04:47:43.331Z,101014.16
2023-02-03T04:50:12.709Z,101006.31
2023-02-03T04:52:42.139Z,101002.81
2023-02-03T04:55:12.944Z,100992.31
2023-02-03T04:57:42.361Z,100986.25
2023-02-03T05:00:13.514Z,100979.25
2023-02-03T05:02:42.768Z,100972.31
2023-02-03T05:05:12.141Z,100962.69
2023-02-03T05:07:41.287Z,100948.72
2023-02-03T05:10:13.129Z,100951.34
2023-02-03T05:12:42.391Z,100949.63
2023-02-03T05:15:11.983Z,100941.78
2023-02-03T05:17:41.293Z,100943.56
2023-02-03T05:20:11.829Z,100931.34
2023-02-03T05:22:41.000Z,100931.38
2023-02-03T05:25:12.343Z,100930.53
2023-02-03T05:27:42.508Z,100922.72
2023-02-03T05:30:13.043Z,100912.19
2023-02-03T05:32:42.242Z,100916.59
2023-02-03T05:35:11.596Z,100922.75
2023-02-03T05:37:40.788Z,100907.91
2023-02-03T05:40:30.440Z,100911.41
2023-02-03T05:42:59.972Z,100901.84
2023-02-03T05:45:29.431Z,100900.06
2023-02-03T05:47:58.665Z,100895.75
2023-02-03T05:50:30.450Z,100901.84
2023-02-03T05:53:09.857Z,100893.13
2023-02-03T05:55:41.404Z,100887.06
2023-02-03T05:58:10.775Z,100878.31
2023-02-03T06:00:40.164Z,100879.22
2023-02-03T06:03:09.465Z,100868.78
2023-02-03T06:05:41.222Z,100867.94
2023-02-03T06:08:10.808Z,100853.94
2023-02-03T06:10:41.620Z,100849.59
2023-02-03T06:13:12.411Z,100847.84
2023-02-03T06:15:42.328Z,100837.41
2023-02-03T06:18:11.659Z,100835.69
2023-02-03T06:20:41.004Z,100826.03
2023-02-03T06:23:10.182Z,100825.19
2023-02-03T06:25:40.925Z,100826.94
2023-02-03T06:28:10.411Z,100806.00
2023-02-03T06:30:39.849Z,100807.75
2023-02-03T06:33:09.096Z,100804.28
2023-02-03T06:35:38.783Z,100797.25
2023-02-03T06:38:08.055Z,100791.16
2023-02-03T06:40:37.408Z,100785.91
2023-02-03T06:43:07.992Z,100778.94
2023-02-03T06:45:37.447Z,100776.31
2023-02-03T06:48:06.691Z,100775.47
2023-02-03T06:50:36.154Z,100762.38
2023-02-03T06:53:05.232Z,100753.69
2023-02-03T06:55:34.724Z,100748.44
2023-02-03T06:58:03.818Z,100744.09
2023-02-03T07:00:34.585Z,100728.34
2023-02-03T07:03:04.568Z,100713.50
2023-02-03T07:05:36.065Z,100708.28
2023-02-03T07:08:05.379Z,100704.78
2023-02-03T07:10:36.411Z,100698.69
2023-02-03T07:13:06.573Z,100699.56
2023-02-03T07:15:37.547Z,100686.50
2023-02-03T07:18:06.922Z,100678.66
2023-02-03T07:20:36.236Z,100675.13
2023-02-03T07:23:05.482Z,100674.28
2023-02-03T07:25:35.176Z,100669.91
2023-02-03T07:28:04.427Z,100669.91
2023-02-03T07:30:34.054Z,100665.56
2023-02-03T07:33:05.008Z,100666.44
2023-02-03T07:35:35.080Z,100662.09
2023-02-03T07:38:04.274Z,100648.13
2023-02-03T07:40:33.704Z,100647.28
2023-02-03T07:43:02.883Z,100633.28
2023-02-03T07:45:32.229Z,100637.69
2023-02-03T07:48:01.644Z,100636.81
2023-02-03T07:50:33.197Z,100628.09
2023-02-03T07:53:03.143Z,100617.59
2023-02-03T07:55:32.780Z,100603.59
2023-02-03T07:58:03.336Z,100603.59
2023-02-03T08:00:33.204Z,100594.88
2023-02-03T08:03:02.575Z,100591.38
2023-02-03T08:05:33.505Z,100585.25
2023-02-03T08:08:02.905Z,100571.25
2023-02-03T08:10:32.303Z,100561.66
2023-02-03T08:13:01.444Z,100561.66
2023-02-03T08:15:30.804Z,100558.13
2023-02-03T08:17:59.928Z,100542.34
2023-02-03T08:20:29.620Z,100538.88
2023-02-03T08:23:00.515Z,100538.00
2023-02-03T08:25:30.062Z,100536.22
2023-02-03T08:27:59.392Z,100536.22
2023-02-03T08:30:29.379Z,100528.31
2023-02-03T08:32:59.816Z,100514.31
2023-02-03T08:35:29.863Z,100509.94
2023-02-03T08:38:00.545Z,100513.44
2023-02-03T08:40:30.687Z,100509.03
2023-02-03T08:43:00.211Z,100497.66
2023-02-03T08:45:29.840Z,100499.38
2023-02-03T08:47:59.348Z,100484.47
2023-02-03T08:50:29.086Z,100473.94
2023-02-03T08:53:00.405Z,100470.44
2023-02-03T08:55:30.237Z,100464.28
2023-02-03T08:57:59.630Z,100452.88
2023-02-03T09:00:29.585Z,100448.47
2023-02-03T09:02:58.741Z,100437.94
2023-02-03T09:05:28.150Z,100433.56
2023-02-03T09:08:00.095Z,100430.91
2023-02-03T09:10:30.364Z,100420.38
2023-02-03T09:12:59.925Z,100408.97
2023-02-03T09:15:29.721Z,100400.16
2023-02-03T09:17:59.019Z,100407.16
2023-02-03T09:20:29.459Z,100396.63
2023-02-03T09:23:01.633Z,100393.13
2023-02-03T09:25:31.341Z,100387.81
2023-02-03T09:28:02.465Z,100380.78
2023-02-03T09:30:32.447Z,100368.41
2023-02-03T09:33:02.162Z,100362.28
2023-02-03T09:35:31.528Z,100351.75
2023-02-03T09:38:02.454Z,100344.72
2023-02-03T09:40:36.396Z,100329.81
2023-02-03T09:43:24.183Z,100321.00
2023-02-03T09:45:53.801Z,100321.00
2023-02-03T09:48:26.066Z,100313.97
2023-02-03T09:50:56.550Z,100297.25
2023-02-03T09:53:32.178Z,100284.09
2023-02-03T09:56:02.005Z,100289.38
2023-02-03T09:58:35.870Z,100269.16
2023-02-03T10:01:10.091Z,100263.03
2023-02-03T10:03:45.664Z,100255.97
2023-02-03T10:06:24.583Z,100255.09
2023-02-03T10:09:11.031Z,100245.44
2023-02-03T10:11:54.535Z,100237.47
2023-02-03T10:14:40.291Z,100233.13
2023-02-03T10:17:20.383Z,100233.16
2023-02-03T10:19:56.529Z,100219.13
2023-02-03T10:22:29.765Z,100208.56
2023-02-03T10:25:06.657Z,100194.53
2023-02-03T10:27:38.547Z,100184.91
2023-02-03T10:30:19.218Z,100174.38
2023-02-03T10:32:53.595Z,100162.09
2023-02-03T10:35:27.357Z,100157.66
2023-02-03T10:38:00.232Z,100142.78
2023-02-03T10:40:31.768Z,100139.28
2023-02-03T10:43:18.774Z,100132.25
2023-02-03T10:45:48.086Z,100122.63
2023-02-03T10:48:20.689Z,100118.25
2023-02-03T10:50:51.839Z,100101.56
2023-02-03T10:53:23.872Z,100092.78
2023-02-03T10:56:04.916Z,100076.16
2023-02-03T10:58:35.590Z,100070.03
2023-02-03T11:01:11.863Z,100056.84
2023-02-03T11:03:45.343Z,100040.16
2023-02-03T11:06:16.707Z,100035.75
2023-02-03T11:08:48.281Z,100019.97
2023-02-03T11:11:25.350Z,100005.91
2023-02-03T11:13:57.169Z,100004.13
2023-02-03T11:16:26.666Z,99997.09
2023-02-03T11:19:02.743Z,99985.72
2023-02-03T11:21:35.047Z,99975.06
2023-02-03T11:24:07.869Z,99973.38
2023-02-03T11:26:44.346Z,99967.16
2023-02-03T11:29:23.445Z,99954.91
2023-02-03T11:31:56.068Z,99953.13
2023-02-03T11:34:29.212Z,99945.19
2023-02-03T11:36:58.802Z,99933.84
2023-02-03T11:39:30.271Z,99926.81
2023-02-03T11:42:01.178Z,99928.56
2023-02-03T11:44:33.660Z,99925.97
2023-02-03T11:47:08.771Z,99918.03
2023-02-03T11:50:10.205Z,99910.09
2023-02-03T11:53:03.056Z,99908.38
2023-02-03T11:55:44.939Z,99904.97
2023-02-03T11:58:44.894Z,99908.53
2023-02-03T12:01:24.645Z,99896.25
2023-02-03T12:04:36.797Z,99884.81
2023-02-03T12:07:23.606Z,99872.59
2023-02-03T12:10:05.610Z,99873.47
2023-02-03T12:12:52.624Z,99876.94
2023-02-03T12:15:55.059Z,99870.91
2023-02-03T12:18:37.651Z,99878.72
2023-02-03T12:21:24.399Z,99864.78
2023-02-03T12:24:01.778Z,99864.78
2023-02-03T12:26:40.427Z,99870.00
2023-02-03T12:29:15.567Z,99865.66
2023-02-03T12:31:52.886Z,99866.53
2023-02-03T12:34:29.362Z,99867.34
2023-02-03T12:37:03.346Z,99866.47
2023-02-03T12:39:36.884Z,99863.81
2023-02-03T12:42:15.880Z,99862.91
2023-02-03T12:44:50.352Z,99859.41
2023-02-03T12:47:29.487Z,99854.06
2023-02-03T12:50:04.219Z,99870.75
2023-02-03T12:52:40.054Z,99854.06
2023-02-03T12:55:21.582Z,99853.22
2023-02-03T12:57:58.796Z,99856.69
2023-02-03T13:00:42.072Z,99844.47
2023-02-03T13:03:31.733Z,99847.06
2023-02-03T13:06:09.378Z,99836.56
2023-02-03T13:08:42.422Z,99833.09
2023-02-03T13:11:21.417Z,99831.31
2023-02-03T13:13:53.613Z,99830.38
2023-02-03T13:16:27.768Z,99833.09
2023-02-03T13:19:05.899Z,99820.88
2023-02-03T13:21:35.462Z,99820.88
2023-02-03T13:24:06.005Z,99824.34
2023-02-03T13:26:55.036Z,99819.94
2023-02-03T13:29:59.820Z,99820.00
2023-02-03T13:32:55.391Z,99819.22
2023-02-03T13:35:38.397Z,99819.13
2023-02-03T13:38:27.145Z,99803.41
2023-02-03T13:41:06.023Z,99806.88
2023-02-03T13:43:39.169Z,99808.66
2023-02-03T13:46:20.924Z,99809.50
2023-02-03T13:48:50.961Z,99798.13
2023-02-03T13:51:25.166Z,99798.13
2023-02-03T13:54:03.007Z,99799.03
2023-02-03T13:56:33.855Z,99791.19
2023-02-03T13:59:06.377Z,99791.16
2023-02-03T14:01:40.107Z,99793.69
2023-02-03T14:04:31.797Z,99794.56
2023-02-03T14:07:05.031Z,99798.97
2023-02-03T14:09:42.104Z,99804.25
2023-02-03T14:12:37.161Z,99799.84
2023-02-03T14:15:24.208Z,99800.75
2023-02-03T14:18:01.733Z,99798.09
2023-02-03T14:21:03.267Z,99797.28
2023-02-03T14:24:00.136Z,99797.19
2023-02-03T14:26:38.664Z,99792.88
2023-02-03T14:29:09.605Z,99803.41
2023-02-03T14:31:57.751Z,99797.31
2023-02-03T14:34:33.062Z,99801.69
2023-02-03T14:37:21.812Z,99802.63
2023-02-03T14:40:23.795Z,99806.97
2023-02-03T14:43:21.697Z,99807.91
2023-02-03T14:46:15.660Z,99805.28
2023-02-03T14:48:59.985Z,99815.91
2023-02-03T14:51:53.102Z,99822.03
2023-02-03T14:54:38.510Z,99834.31
2023-02-03T14:57:23.440Z,99828.22
2023-02-03T14:59:59.758Z,99823.00
2023-02-03T15:02:31.519Z,99830.91
2023-02-03T15:05:38.098Z,99833.50
2023-02-03T15:08:22.847Z,99837.00
2023-02-03T15:10:52.538Z,99847.59
2023-02-03T15:13:28.504Z,99856.44
2023-02-03T15:15:59.941Z,99872.16
2023-02-03T15:18:32.292Z,99880.94
2023-02-03T15:21:01.786Z,99879.19
2023-02-03T15:23:42.118Z,99886.28
2023-02-03T15:26:15.834Z,99885.41
2023-02-03T15:28:54.627Z,99895.06
2023-02-03T15:31:31.926Z,99893.31
2023-02-03T15:34:07.243Z,99899.47
2023-02-03T15:36:43.340Z,99903.88
2023-02-03T15:39:24.881Z,99894.19
2023-02-03T15:41:58.237Z,99897.69
2023-02-03T15:44:34.771Z,99899.44
2023-02-03T15:47:08.330Z,99888.09
2023-02-03T15:49:43.420Z,99889.00
2023-02-03T15:52:18.183Z,99893.28
2023-02-03T15:54:53.839Z,99901.28
2023-02-03T15:57:27.779Z,99905.75
2023-02-03T16:00:14.043Z,99910.13
2023-02-03T16:02:46.700Z,99910.97
2023-02-03T16:05:26.171Z,99916.25
2023-02-03T16:07:56.186Z,99919.69
2023-02-03T16:10:30.208Z,99934.66
2023-02-03T16:13:24.414Z,99939.94
2023-02-03T16:16:08.722Z,99940.88
2023-02-03T16:18:39.244Z,99948.78
2023-02-03T16:21:32.118Z,99951.34
2023-02-03T16:24:01.990Z,99956.56
2023-02-03T16:26:34.696Z,99967.09
2023-02-03T16:29:34.575Z,99970.59
2023-02-03T16:32:36.590Z,99972.31
2023-02-03T16:35:29.111Z,99980.19
2023-02-03T16:38:23.300Z,99988.16
2023-02-03T16:41:10.506Z,99996.06
2023-02-03T16:43:57.939Z,100002.25
2023-02-03T16:46:44.832Z,100020.69
2023-02-03T16:49:32.945Z,100018.91
2023-02-03T16:52:06.060Z,100027.66
2023-02-03T16:54:37.330Z,100028.59
2023-02-03T16:57:06.887Z,100029.44
2023-02-03T16:59:35.978Z,100025.88
2023-02-03T17:02:05.447Z,100030.31
2023-02-03T17:04:36.521Z,100028.59
2023-02-03T17:07:06.295Z,100032.91
2023-02-03T17:09:35.594Z,100047.78
2023-02-03T17:12:05.941Z,100048.63
2023-02-03T17:14:35.487Z,100063.50
2023-02-03T17:17:04.840Z,100060.91
2023-02-03T17:19:38.275Z,100066.19
2023-02-03T17:22:08.464Z,100073.22
2023-02-03T17:24:37.651Z,100076.78
2023-02-03T17:27:07.066Z,100082.94
2023-02-03T17:29:36.299Z,100095.22
2023-02-03T17:32:05.773Z,100097.84
2023-02-03T17:34:35.332Z,100099.59
2023-02-03T17:37:05.930Z,100113.63
2023-02-03T17:53:33.082Z,100106.66
2023-02-03T17:56:08.147Z,100117.19
2023-02-03T17:58:38.216Z,100118.03
2023-02-03T18:01:15.757Z,100111.94
2023-02-03T18:03:46.765Z,100129.50
2023-02-03T18:06:16.936Z,100146.09
2023-02-03T18:08:50.571Z,100157.44
2023-02-03T18:11:21.992Z,100159.25
2023-02-03T18:13:52.202Z,100168.91
2023-02-03T18:16:26.145Z,100164.53
2023-02-03T18:18:58.659Z,100163.66
2023-02-03T18:21:28.750Z,100161.91
2023-02-03T18:24:02.247Z,100174.22
2023-02-03T18:26:34.729Z,100171.59
2023-02-03T18:29:05.925Z,100171.59
2023-02-03T18:31:35.275Z,100175.97
2023-02-03T18:34:06.079Z,100182.06
2023-02-03T18:36:35.279Z,100186.50
2023-02-03T18:39:06.288Z,100177.75
2023-02-03T18:41:36.543Z,100193.44
2023-02-03T18:44:06.594Z,100217.09
2023-02-03T18:46:36.105Z,100226.75
2023-02-03T18:49:08.721Z,100235.53
2023-02-03T18:51:38.004Z,100241.66
2023-02-03T18:54:08.962Z,100247.78
2023-02-03T18:56:38.495Z,100256.56
2023-02-03T18:59:09.838Z,100260.09
2023-02-03T19:01:40.185Z,100279.34
2023-02-03T19:04:10.323Z,100289.84
2023-02-03T19:06:45.451Z,100303.91
2023-02-03T19:09:19.540Z,100319.69
2023-02-03T19:11:48.941Z,100329.31
2023-02-03T19:14:20.214Z,100340.69
2023-02-03T19:16:51.727Z,100351.19
2023-02-03T19:19:21.999Z,100352.97
2023-02-03T19:21:54.585Z,100356.47
2023-02-03T19:24:27.286Z,100358.22
2023-02-03T19:26:56.722Z,100358.22
2023-02-03T19:29:26.061Z,100364.38
2023-02-03T19:31:56.513Z,100367.84
2023-02-03T19:34:27.625Z,100382.75
2023-02-03T19:37:01.625Z,100381.91
2023-02-03T19:39:32.729Z,100406.44
2023-02-03T19:42:04.126Z,100407.31
2023-02-03T19:44:33.662Z,100409.09
2023-02-03T19:47:03.963Z,100419.59
2023-02-03T19:49:34.303Z,100424.84
2023-02-03T19:52:04.223Z,100420.47
2023-02-03T19:54:35.907Z,100435.38
2023-02-03T19:57:07.280Z,100436.25
2023-02-03T19:59:36.791Z,100444.13
2023-02-03T20:02:13.786Z,100449.38
2023-02-03T20:04:44.628Z,100464.31
2023-02-03T20:07:14.686Z,100480.13
2023-02-03T20:09:46.397Z,100487.09
2023-02-03T20:12:16.010Z,100497.59
2023-02-03T20:14:46.085Z,100510.75
2023-02-03T20:17:15.595Z,100517.78
2023-02-03T20:19:45.102Z,100524.78
2023-02-03T20:22:15.588Z,100532.66
2023-02-03T20:24:46.876Z,100544.94
2023-02-03T20:27:18.437Z,100556.34
2023-02-03T20:29:49.927Z,100564.22
2023-02-03T20:32:23.299Z,100574.75
2023-02-03T20:34:54.021Z,100586.13
2023-02-03T20:37:23.697Z,100597.50
2023-02-03T20:39:56.743Z,100608.91
2023-02-03T20:42:28.918Z,100618.56
2023-02-03T20:44:58.691Z,100628.22
2023-02-03T20:47:28.555Z,100644.84
2023-02-03T20:49:59.479Z,100646.59
2023-02-03T20:52:29.718Z,100680.81
2023-02-03T20:55:00.521Z,100686.03
2023-02-03T20:57:32.206Z,100700.09
2023-02-03T21:00:03.087Z,100704.50
2023-02-03T21:02:50.458Z,100709.72
2023-02-03T21:05:27.429Z,100713.22
2023-02-03T21:11:01.515Z,100724.66
2023-02-03T21:13:36.057Z,100736.91
2023-02-03T21:16:17.537Z,100746.56
2023-02-03T21:18:50.637Z,100760.59
2023-02-03T21:21:24.923Z,100758.81
2023-02-03T21:23:56.242Z,100773.75
2023-02-03T21:26:28.606Z,100775.50
2023-02-03T21:29:00.641Z,100795.66
2023-02-03T21:31:32.629Z,100800.94
2023-02-03T21:34:04.074Z,100804.44
2023-02-03T21:36:36.661Z,100818.47
2023-02-03T21:39:25.502Z,100829.91
2023-02-03T21:41:56.573Z,100838.66
2023-02-03T21:44:31.718Z,100846.56
2023-02-03T21:47:05.110Z,100847.44
2023-02-03T21:49:35.129Z,100857.09
2023-02-03T21:52:05.492Z,100869.34
2023-02-03T21:54:42.171Z,100879.00
2023-02-03T21:57:15.770Z,100883.38
2023-02-03T21:59:47.248Z,100894.78
2023-02-03T22:02:46.270Z,100909.69
2023-02-03T22:05:17.626Z,100915.81
2023-02-03T22:07:46.835Z,100928.97
2023-02-03T22:10:16.416Z,100938.63
2023-02-03T22:12:47.100Z,100943.91
2023-02-03T22:15:16.662Z,100957.94
2023-02-03T22:17:48.377Z,100961.41
2023-02-03T22:20:17.860Z,100969.31
2023-02-03T22:22:46.927Z,100972.81
2023-02-03T22:25:16.444Z,100971.06
2023-02-03T22:27:46.939Z,100985.13
2023-02-03T22:30:18.135Z,100996.50
2023-02-03T22:32:47.274Z,100997.38
2023-02-03T22:35:16.751Z,101006.16
2023-02-03T22:37:45.988Z,101011.41
2023-02-03T22:40:15.330Z,101013.19
2023-02-03T22:42:46.186Z,101027.25
2023-02-03T22:45:16.260Z,101030.72
2023-02-03T22:47:45.746Z,101048.25
2023-02-03T22:50:17.469Z,101048.25
2023-02-03T22:52:50.848Z,101058.75
2023-02-03T22:55:20.410Z,101060.53
2023-02-03T22:57:52.540Z,101079.84
2023-02-03T23:00:23.656Z,101094.69
2023-02-03T23:02:52.940Z,101095.56
2023-02-03T23:05:23.215Z,101098.19
2023-02-03T23:07:52.560Z,101111.34
2023-02-03T23:10:24.396Z,101122.78
2023-02-03T23:12:55.096Z,101134.19
2023-02-03T23:15:24.800Z,101142.91
2023-02-03T23:17:54.081Z,101150.81
2023-02-03T23:20:23.656Z,101156.06
2023-02-03T23:22:52.977Z,101162.19
2023-02-03T23:25:22.848Z,101173.59
2023-02-03T23:27:52.073Z,101184.13
2023-02-03T23:30:23.064Z,101189.41
2023-02-03T23:32:52.612Z,101201.69
2023-02-03T23:35:39.501Z,101192.91
2023-02-03T23:38:08.668Z,101192.06
2023-02-03T23:40:38.030Z,101205.19
2023-02-03T23:43:07.286Z,101212.19
2023-02-03T23:45:37.992Z,101218.31
2023-02-03T23:48:07.703Z,101222.72
2023-02-03T23:50:37.387Z,101227.13
2023-02-03T23:53:06.874Z,101234.16
2023-02-03T23:55:36.504Z,101243.78
2023-02-03T23:58:06.257Z,101246.41
